Observation data for Post on 12/09/2018      Previous  Date  Next       Current Mesonet Observations  Soil Data  Daily Summary Page  Observations in Plain Language
KPT1 090600Z 27006KT M00/M02 A3031 RMK A01 T10021018  RH  090%=      5-min Rain = 0
KPT1 090605Z 27006KT M00/M02 A3031 RMK A01 T10021018  RH  090%=      5-min Rain = 0
KPT1 090610Z 28006KT M00/M02 A3031 RMK A01 T10031019  RH  090%=      5-min Rain = 0
KPT1 090615Z 29005KT M00/M02 A303 RMK A01 T10031019  RH  090%=      5-min Rain = 0
KPT1 090620Z 30005KT M00/M02 A303 RMK A01 T10041021  RH  090%=      5-min Rain = 0
KPT1 090625Z 31004KT M01/M02 A303 RMK A01 T10071023  RH  090%=      5-min Rain = 0
KPT1 090630Z 31004KT M01/M02 A3031 RMK A01 T10081024  RH  090%=      5-min Rain = 0
KPT1 090635Z 32004KT M01/M03 A303 RMK A01 T10101025  RH  091%=      5-min Rain = 0
KPT1 090640Z 32003KT M01/M03 A303 RMK A01 T10121026  RH  091%=      5-min Rain = 0
KPT1 090645Z 30004KT M01/M03 A303 RMK A01 T10121027  RH  091%=      5-min Rain = 0
KPT1 090650Z 30005KT M01/M03 A303 RMK A01 T10131027  RH  091%=      5-min Rain = 0
KPT1 090655Z 29005KT M01/M03 A303 RMK A01 T10141027  RH  092%=      5-min Rain = 0
KPT1 090700Z 29004KT M01/M03 A303 RMK A01 T10141027  RH  092%=      5-min Rain = 0
KPT1 090705Z 30003KT M01/M03 A303 RMK A01 T10141027  RH  092%=      5-min Rain = 0
KPT1 090710Z 30004KT M02/M03 A303 RMK A01 T10151028  RH  092%=      5-min Rain = 0
KPT1 090715Z 31004KT M02/M03 A303 RMK A01 T10171030  RH  092%=      5-min Rain = 0
KPT1 090720Z 30005KT M02/M03 A303 RMK A01 T10181030  RH  092%=      5-min Rain = 0
KPT1 090725Z 31005KT M02/M03 A303 RMK A01 T10181030  RH  092%=      5-min Rain = 0
KPT1 090730Z 30005KT M02/M03 A303 RMK A01 T10181030  RH  092%=      5-min Rain = 0
KPT1 090735Z 30005KT M02/M03 A303 RMK A01 T10181030  RH  093%=      5-min Rain = 0
KPT1 090740Z 30005KT M02/M03 A303 RMK A01 T10161028  RH  093%=      5-min Rain = 0
KPT1 090745Z 31004KT M02/M03 A303 RMK A01 T10171029  RH  093%=      5-min Rain = 0
KPT1 090750Z 31004KT M02/M03 A303 RMK A01 T10181030  RH  093%=      5-min Rain = 0
KPT1 090755Z 30004KT M02/M03 A303 RMK A01 T10181031  RH  092%=      5-min Rain = 0
KPT1 090800Z 30006KT M02/M03 A303 RMK A01 T10191031  RH  092%=      5-min Rain = 0
KPT1 090805Z 31005KT M02/M03 A3029 RMK A01 T10191031  RH  092%=      5-min Rain = 0
KPT1 090810Z 30006KT M02/M03 A3029 RMK A01 T10201032  RH  092%=      5-min Rain = 0
KPT1 090815Z 30006KT M02/M03 A3029 RMK A01 T10191031  RH  092%=      5-min Rain = 0
KPT1 090820Z 30007KT M02/M03 A303 RMK A01 T10191032  RH  092%=      5-min Rain = 0
KPT1 090825Z 30007KT M02/M03 A303 RMK A01 T10181030  RH  092%=      5-min Rain = 0
KPT1 090830Z 31007KT M02/M03 A303 RMK A01 T10171029  RH  092%=      5-min Rain = 0
KPT1 090835Z 30007KT M02/M03 A303 RMK A01 T10171030  RH  092%=      5-min Rain = 0
KPT1 090840Z 30007KT M02/M03 A303 RMK A01 T10171030  RH  092%=      5-min Rain = 0
KPT1 090845Z 30007KT M02/M03 A3029 RMK A01 T10171031  RH  092%=      5-min Rain = 0
KPT1 090850Z 30007KT M02/M03 A3029 RMK A01 T10181031  RH  092%=      5-min Rain = 0
KPT1 090855Z 30006KT M02/M03 A303 RMK A01 T10191032  RH  092%=      5-min Rain = 0
KPT1 090900Z 31004KT M02/M03 A303 RMK A01 T10201034  RH  092%=      5-min Rain = 0
KPT1 090905Z 32004KT M02/M04 A303 RMK A01 T10211035  RH  092%=      5-min Rain = 0
KPT1 090910Z 32005KT M02/M03 A303 RMK A01 T10221034  RH  092%=      5-min Rain = 0
KPT1 090915Z 32005KT M02/M03 A303 RMK A01 T10211034  RH  092%=      5-min Rain = 0
KPT1 090920Z 32005KT M02/M03 A303 RMK A01 T10211034  RH  092%=      5-min Rain = 0
KPT1 090925Z 32005KT M02/M03 A303 RMK A01 T10211033  RH  092%=      5-min Rain = 0
KPT1 090930Z 33005KT M02/M03 A303 RMK A01 T10211034  RH  092%=      5-min Rain = 0
KPT1 090935Z 33006KT M02/M03 A303 RMK A01 T10201033  RH  092%=      5-min Rain = 0
KPT1 090940Z 33006KT M02/M03 A303 RMK A01 T10201033  RH  092%=      5-min Rain = 0
KPT1 090945Z 33006KT M02/M03 A303 RMK A01 T10201034  RH  092%=      5-min Rain = 0
KPT1 090950Z 33006KT M02/M04 A303 RMK A01 T10211035  RH  091%=      5-min Rain = 0
KPT1 090955Z 32006KT M02/M04 A303 RMK A01 T10221035  RH  091%=      5-min Rain = 0
KPT1 091000Z 32007KT M02/M04 A303 RMK A01 T10221036  RH  091%=      5-min Rain = 0
KPT1 091005Z 32007KT M02/M04 A303 RMK A01 T10231037  RH  091%=      5-min Rain = 0
KPT1 091010Z 32007KT M02/M04 A303 RMK A01 T10241038  RH  091%=      5-min Rain = 0
KPT1 091015Z 32006KT M02/M04 A303 RMK A01 T10241038  RH  091%=      5-min Rain = 0
KPT1 091020Z 33005KT M03/M04 A303 RMK A01 T10251039  RH  091%=      5-min Rain = 0
KPT1 091025Z 33005KT M03/M04 A303 RMK A01 T10261040  RH  091%=      5-min Rain = 0
KPT1 091030Z 33005KT M03/M04 A303 RMK A01 T10271041  RH  091%=      5-min Rain = 0
KPT1 091035Z 33005KT M03/M04 A303 RMK A01 T10291043  RH  091%=      5-min Rain = 0
KPT1 091040Z 34005KT M03/M04 A303 RMK A01 T10301044  RH  092%=      5-min Rain = 0
KPT1 091045Z 34004KT M03/M04 A303 RMK A01 T10311044  RH  092%=      5-min Rain = 0
KPT1 091050Z 35004KT M03/M05 A303 RMK A01 T10331046  RH  092%=      5-min Rain = 0
KPT1 091055Z 34004KT M04/M05 A303 RMK A01 T10351048  RH  092%=      5-min Rain = 0
KPT1 091100Z 36003KT M04/M05 A303 RMK A01 T10361049  RH  092%=      5-min Rain = 0
KPT1 091105Z 35003KT M04/M05 A303 RMK A01 T10361049  RH  092%=      5-min Rain = 0
KPT1 091110Z 34004KT M04/M05 A3031 RMK A01 T10361049  RH  092%=      5-min Rain = 0
KPT1 091115Z 33005KT M04/M05 A3031 RMK A01 T10361049  RH  092%=      5-min Rain = 0
KPT1 091120Z 33005KT M04/M05 A3031 RMK A01 T10371050  RH  092%=      5-min Rain = 0
KPT1 091125Z 32005KT M04/M05 A3031 RMK A01 T10371051  RH  091%=      5-min Rain = 0
KPT1 091130Z 31006KT M04/M05 A3031 RMK A01 T10381051  RH  091%=      5-min Rain = 0
KPT1 091135Z 31007KT M04/M05 A3031 RMK A01 T10361050  RH  091%=      5-min Rain = 0
KPT1 091140Z 31007KT M04/M05 A3031 RMK A01 T10351049  RH  091%=      5-min Rain = 0
KPT1 091145Z 31006KT M04/M05 A3031 RMK A01 T10351049  RH  091%=      5-min Rain = 0
KPT1 091150Z 32006KT M04/M05 A3032 RMK A01 T10351050  RH  091%=      5-min Rain = 0
KPT1 091155Z 32005KT M04/M05 A3032 RMK A01 T10351050  RH  090%=      5-min Rain = 0
KPT1 091200Z 33004KT M04/M05 A3032 RMK A01 T10351050  RH  090%=      5-min Rain = 0
KPT1 091205Z 33005KT M03/M05 A3032 RMK A01 T10341049  RH  090%=      5-min Rain = 0
KPT1 091210Z 34006KT M03/M05 A3032 RMK A01 T10331048  RH  090%=      5-min Rain = 0
KPT1 091215Z 34005KT M03/M05 A3033 RMK A01 T10321047  RH  090%=      5-min Rain = 0
KPT1 091220Z 33006KT M03/M05 A3033 RMK A01 T10331047  RH  090%=      5-min Rain = 0
KPT1 091225Z 33006KT M03/M05 A3033 RMK A01 T10331048  RH  090%=      5-min Rain = 0
KPT1 091230Z 33004KT M03/M05 A3034 RMK A01 T10341049  RH  090%=      5-min Rain = 0
KPT1 091235Z 35003KT M04/M05 A3034 RMK A01 T10351050  RH  090%=      5-min Rain = 0
KPT1 091240Z 35002KT M04/M05 A3034 RMK A01 T10361051  RH  090%=      5-min Rain = 0
KPT1 091245Z 32003KT M04/M05 A3034 RMK A01 T10361051  RH  090%=      5-min Rain = 0
KPT1 091250Z 32004KT M04/M05 A3034 RMK A01 T10361051  RH  091%=      5-min Rain = 0
KPT1 091255Z 32006KT M04/M05 A3034 RMK A01 T10371052  RH  090%=      5-min Rain = 0
KPT1 091300Z 31006KT M04/M05 A3034 RMK A01 T10371052  RH  090%=      5-min Rain = 0
KPT1 091305Z 31006KT M04/M05 A3034 RMK A01 T10351050  RH  090%=      5-min Rain = 0
KPT1 091310Z 33005KT M04/M05 A3034 RMK A01 T10361052  RH  090%=      5-min Rain = 0
KPT1 091315Z 33004KT M04/M05 A3034 RMK A01 T10361052  RH  090%=      5-min Rain = 0
KPT1 091320Z 33004KT M04/M05 A3034 RMK A01 T10361052  RH  090%=      5-min Rain = 0
KPT1 091325Z 33005KT M04/M05 A3035 RMK A01 T10371053  RH  090%=      5-min Rain = 0
KPT1 091330Z 32006KT M04/M05 A3035 RMK A01 T10381053  RH  090%=      5-min Rain = 0
KPT1 091335Z 32006KT M04/M05 A3035 RMK A01 T10371053  RH  090%=      5-min Rain = 0
KPT1 091340Z 32007KT M04/M05 A3035 RMK A01 T10371052  RH  090%=      5-min Rain = 0
KPT1 091345Z 32007KT M04/M05 A3035 RMK A01 T10351051  RH  090%=      5-min Rain = 0
KPT1 091350Z 32008KT M03/M05 A3035 RMK A01 T10331049  RH  090%=      5-min Rain = 0
KPT1 091355Z 32007KT M03/M05 A3036 RMK A01 T10311049  RH  089%=      5-min Rain = 0
KPT1 091400Z 31006KT M03/M05 A3036 RMK A01 T10301048  RH  088%=      5-min Rain = 0
KPT1 091405Z 31007KT M03/M05 A3036 RMK A01 T10281047  RH  088%=      5-min Rain = 0
KPT1 091410Z 32007KT M03/M05 A3036 RMK A01 T10261046  RH  087%=      5-min Rain = 0
KPT1 091415Z 31007KT M02/M04 A3036 RMK A01 T10241044  RH  087%=      5-min Rain = 0
KPT1 091420Z 31007KT M02/M04 A3037 RMK A01 T10221043  RH  087%=      5-min Rain = 0
KPT1 091425Z 31006KT M02/M04 A3037 RMK A01 T10201041  RH  087%=      5-min Rain = 0
KPT1 091430Z 31007KT M02/M04 A3037 RMK A01 T10191040  RH  087%=      5-min Rain = 0
KPT1 091435Z 31007KT M02/M04 A3037 RMK A01 T10171038  RH  086%=      5-min Rain = 0
KPT1 091440Z 32007KT M02/M04 A3037 RMK A01 T10151037  RH  086%=      5-min Rain = 0
KPT1 091445Z 31007KT M01/M04 A3037 RMK A01 T10121035  RH  086%=      5-min Rain = 0
KPT1 091450Z 31006KT M01/M03 A3037 RMK A01 T10101032  RH  086%=      5-min Rain = 0
KPT1 091455Z 31007KT M01/M03 A3038 RMK A01 T10081031  RH  085%=      5-min Rain = 0
KPT1 091500Z 31006KT M01/M03 A3038 RMK A01 T10071031  RH  085%=      5-min Rain = 0
KPT1 091505Z 32006KT M01/M03 A3038 RMK A01 T10051029  RH  084%=      5-min Rain = 0
KPT1 091510Z 32005KT M00/M03 A3038 RMK A01 T10031029  RH  084%=      5-min Rain = 0
KPT1 091515Z 32004KT M00/M03 A3039 RMK A01 T10011028  RH  083%=      5-min Rain = 0
KPT1 091520Z 31004KT 00/M03 A3039 RMK A01 T00011027  RH  082%=      5-min Rain = 0
KPT1 091525Z 32003KT 00/M03 A3039 RMK A01 T00021029  RH  081%=      5-min Rain = 0
KPT1 091530Z 31003KT 01/M03 A3039 RMK A01 T00051029  RH  078%=      5-min Rain = 0
KPT1 091535Z 32003KT 01/M03 A3039 RMK A01 T00061031  RH  077%=      5-min Rain = 0
KPT1 091540Z 31005KT 01/M03 A3039 RMK A01 T00071033  RH  075%=      5-min Rain = 0
KPT1 091545Z 31005KT 01/M03 A3039 RMK A01 T00081033  RH  075%=      5-min Rain = 0
KPT1 091550Z 32004KT 01/M04 A304 RMK A01 T00111035  RH  072%=      5-min Rain = 0
KPT1 091555Z 32005KT 01/M03 A304 RMK A01 T00141033  RH  072%=      5-min Rain = 0
KPT1 091600Z 32005KT 02/M03 A304 RMK A01 T00151033  RH  071%=      5-min Rain = 0
KPT1 091605Z 32005KT 02/M03 A304 RMK A01 T00201030  RH  070%=      5-min Rain = 0
KPT1 091610Z 32005KT 02/M03 A3041 RMK A01 T00201031  RH  070%=      5-min Rain = 0
KPT1 091615Z 31005KT 02/M03 A3041 RMK A01 T00211032  RH  069%=      5-min Rain = 0
KPT1 091620Z 31006KT 02/M03 A3041 RMK A01 T00221030  RH  069%=      5-min Rain = 0
KPT1 091625Z 32005KT 03/M03 A3041 RMK A01 T00251029  RH  068%=      5-min Rain = 0
KPT1 091630Z 33005KT 03/M03 A3041 RMK A01 T00271031  RH  066%=      5-min Rain = 0
KPT1 091635Z 32004KT 03/M03 A3041 RMK A01 T00281030  RH  066%=      5-min Rain = 0
KPT1 091640Z 34004KT 03/M03 A3041 RMK A01 T00301032  RH  064%=      5-min Rain = 0
KPT1 091645Z 32004KT 03/M03 A3041 RMK A01 T00331029  RH  064%=      5-min Rain = 0
KPT1 091650Z 33004KT 04/M03 A3041 RMK A01 T00361029  RH  063%=      5-min Rain = 0
KPT1 091655Z 33004KT 04/M03 A3041 RMK A01 T00381026  RH  064%=      5-min Rain = 0
KPT1 091700Z 33004KT 04/M04 A304 RMK A01 T00351041  RH  058%=      5-min Rain = 0
KPT1 091705Z 34003KT 04/M04 A304 RMK A01 T00381038  RH  058%=      5-min Rain = 0
KPT1 091710Z 34003KT 04/M04 A304 RMK A01 T00401044  RH  055%=      5-min Rain = 0
KPT1 091715Z 35004KT 04/M05 A304 RMK A01 T00431054  RH  050%=      5-min Rain = 0
KPT1 091720Z 33003KT 04/M06 A304 RMK A01 T00441057  RH  048%=      5-min Rain = 0
KPT1 091725Z 34004KT 05/M05 A304 RMK A01 T00481046  RH  051%=      5-min Rain = 0
KPT1 091730Z 00005KT 05/M05 A304 RMK A01 T00501045  RH  051%=      5-min Rain = 0
KPT1 091735Z 00004KT 05/M04 A304 RMK A01 T00511041  RH  052%=      5-min Rain = 0
KPT1 091740Z 36005KT 05/M04 A304 RMK A01 T00521035  RH  054%=      5-min Rain = 0
KPT1 091745Z 36006KT 05/M03 A304 RMK A01 T00521033  RH  055%=      5-min Rain = 0
KPT1 091750Z 34006KT 05/M04 A304 RMK A01 T00521036  RH  054%=      5-min Rain = 0
KPT1 091755Z 34005KT 05/M04 A3039 RMK A01 T00511036  RH  054%=      5-min Rain = 0
KPT1 091800Z 36004KT 06/M04 A3039 RMK A01 T00561036  RH  052%=      5-min Rain = 0
KPT1 091805Z 35005KT 06/M04 A3039 RMK A01 T00581039  RH  050%=      5-min Rain = 0
KPT1 091810Z 35006KT 05/M05 A3039 RMK A01 T00541048  RH  048%=      5-min Rain = 0
KPT1 091815Z 01005KT 06/M05 A3039 RMK A01 T00561045  RH  049%=      5-min Rain = 0
KPT1 091820Z 01004KT 06/M05 A3038 RMK A01 T00591050  RH  046%=      5-min Rain = 0
KPT1 091825Z 01005KT 06/M05 A3038 RMK A01 T00601046  RH  047%=      5-min Rain = 0
KPT1 091830Z 35005KT 06/M05 A3037 RMK A01 T00601047  RH  047%=      5-min Rain = 0
KPT1 091835Z 35003KT 06/M05 A3037 RMK A01 T00601045  RH  047%=      5-min Rain = 0
KPT1 091840Z 36005KT 06/M05 A3036 RMK A01 T00621045  RH  047%=      5-min Rain = 0
KPT1 091845Z 36004G9KT 06/M05 A3036 RMK A01 T00611045  RH  047%=      5-min Rain = 0
KPT1 091850Z 00005KT 06/M04 A3036 RMK A01 T00641043  RH  047%=      5-min Rain = 0
KPT1 091855Z 01003KT 06/M05 A3036 RMK A01 T00621047  RH  046%=      5-min Rain = 0
KPT1 091900Z 02005KT 07/M04 A3036 RMK A01 T00671044  RH  046%=      5-min Rain = 0
KPT1 091905Z 02005KT 07/M05 A3036 RMK A01 T00721045  RH  044%=      5-min Rain = 0
KPT1 091910Z 02006KT 07/M05 A3036 RMK A01 T00661051  RH  044%=      5-min Rain = 0
KPT1 091915Z 35005KT 07/M05 A3035 RMK A01 T00651051  RH  044%=      5-min Rain = 0
KPT1 091920Z 34006KT 07/M05 A3035 RMK A01 T00671050  RH  043%=      5-min Rain = 0
KPT1 091925Z 35006KT 07/M05 A3035 RMK A01 T00691045  RH  044%=      5-min Rain = 0
KPT1 091930Z 34006KT 07/M05 A3035 RMK A01 T00671048  RH  044%=      5-min Rain = 0
KPT1 091935Z 32005KT 07/M04 A3035 RMK A01 T00711042  RH  045%=      5-min Rain = 0
KPT1 091940Z 32006KT 07/M04 A3035 RMK A01 T00691042  RH  046%=      5-min Rain = 0
KPT1 091945Z 34004KT 07/M04 A3035 RMK A01 T00691043  RH  045%=      5-min Rain = 0
KPT1 091950Z 33006KT 07/M04 A3035 RMK A01 T00661042  RH  047%=      5-min Rain = 0
KPT1 091955Z 33004KT 07/M04 A3035 RMK A01 T00671040  RH  047%=      5-min Rain = 0
KPT1 092000Z 34005KT 07/M04 A3035 RMK A01 T00691040  RH  046%=      5-min Rain = 0
KPT1 092005Z 29003KT 07/M04 A3035 RMK A01 T00711043  RH  045%=      5-min Rain = 0
KPT1 092010Z 36007KT 07/M04 A3035 RMK A01 T00701043  RH  045%=      5-min Rain = 0
KPT1 092015Z 36004KT 07/M05 A3034 RMK A01 T00671050  RH  044%=      5-min Rain = 0
KPT1 092020Z 34005KT 07/M05 A3034 RMK A01 T00701045  RH  044%=      5-min Rain = 0
KPT1 092025Z 31005KT 07/M05 A3034 RMK A01 T00681045  RH  045%=      5-min Rain = 0
KPT1 092030Z 33005KT 07/M04 A3034 RMK A01 T00691044  RH  045%=      5-min Rain = 0
KPT1 092035Z 33006KT 07/M04 A3034 RMK A01 T00701042  RH  045%=      5-min Rain = 0
KPT1 092040Z 34004KT 07/M04 A3034 RMK A01 T00701044  RH  045%=      5-min Rain = 0
KPT1 092045Z 34005KT 07/M05 A3034 RMK A01 T00721045  RH  044%=      5-min Rain = 0
KPT1 092050Z 35005KT 07/M04 A3034 RMK A01 T00731044  RH  044%=      5-min Rain = 0
KPT1 092055Z 35005KT 07/M05 A3034 RMK A01 T00721046  RH  043%=      5-min Rain = 0
KPT1 092100Z 35006KT 07/M05 A3034 RMK A01 T00721048  RH  043%=      5-min Rain = 0
KPT1 092105Z 34006KT 07/M05 A3034 RMK A01 T00691049  RH  043%=      5-min Rain = 0
KPT1 092110Z 34005KT 07/M05 A3034 RMK A01 T00721047  RH  043%=      5-min Rain = 0
KPT1 092115Z 34005G10KT 07/M05 A3034 RMK A01 T00691050  RH  043%=      5-min Rain = 0
KPT1 092120Z 01006KT 07/M05 A3034 RMK A01 T00701049  RH  043%=      5-min Rain = 0
KPT1 092125Z 34006KT 07/M05 A3034 RMK A01 T00711046  RH  044%=      5-min Rain = 0
KPT1 092130Z 35006KT 07/M04 A3034 RMK A01 T00711044  RH  044%=      5-min Rain = 0
KPT1 092135Z 00005KT 07/M05 A3034 RMK A01 T00701048  RH  043%=      5-min Rain = 0
KPT1 092140Z 35006KT 07/M04 A3034 RMK A01 T00711044  RH  044%=      5-min Rain = 0
KPT1 092145Z 35006KT 07/M04 A3034 RMK A01 T00721044  RH  044%=      5-min Rain = 0
KPT1 092150Z 33007KT 07/M05 A3034 RMK A01 T00691045  RH  045%=      5-min Rain = 0
KPT1 092155Z 34005KT 07/M05 A3033 RMK A01 T00691045  RH  044%=      5-min Rain = 0
KPT1 092200Z 35006KT 07/M04 A3033 RMK A01 T00681044  RH  045%=      5-min Rain = 0
KPT1 092205Z 35006KT 07/M04 A3033 RMK A01 T00691044  RH  045%=      5-min Rain = 0
KPT1 092210Z 36006KT 07/M05 A3033 RMK A01 T00671045  RH  045%=      5-min Rain = 0
KPT1 092215Z 34006KT 07/M04 A3034 RMK A01 T00681044  RH  045%=      5-min Rain = 0
KPT1 092220Z 34006KT 07/M04 A3034 RMK A01 T00681044  RH  045%=      5-min Rain = 0
KPT1 092225Z 34006KT 07/M05 A3034 RMK A01 T00651045  RH  046%=      5-min Rain = 0
KPT1 092230Z 34006KT 07/M04 A3034 RMK A01 T00671042  RH  046%=      5-min Rain = 0
KPT1 092235Z 33006KT 07/M04 A3034 RMK A01 T00651043  RH  046%=      5-min Rain = 0
KPT1 092240Z 34006KT 06/M04 A3035 RMK A01 T00641044  RH  047%=      5-min Rain = 0
KPT1 092245Z 34008KT 06/M04 A3035 RMK A01 T00611044  RH  047%=      5-min Rain = 0
KPT1 092250Z 33007KT 06/M04 A3035 RMK A01 T00601042  RH  048%=      5-min Rain = 0
KPT1 092255Z 33007KT 06/M04 A3035 RMK A01 T00581042  RH  049%=      5-min Rain = 0
KPT1 092300Z 33007KT 06/M04 A3035 RMK A01 T00561043  RH  049%=      5-min Rain = 0
KPT1 092305Z 33007KT 05/M04 A3035 RMK A01 T00541044  RH  050%=      5-min Rain = 0
KPT1 092310Z 32006KT 05/M04 A3035 RMK A01 T00531042  RH  051%=      5-min Rain = 0
KPT1 092315Z 32006KT 05/M04 A3035 RMK A01 T00511041  RH  052%=      5-min Rain = 0
KPT1 092320Z 32005KT 05/M04 A3035 RMK A01 T00481040  RH  054%=      5-min Rain = 0
KPT1 092325Z 32005KT 05/M04 A3035 RMK A01 T00451039  RH  055%=      5-min Rain = 0
KPT1 092330Z 32007KT 04/M04 A3035 RMK A01 T00411039  RH  056%=      5-min Rain = 0
KPT1 092335Z 32006KT 04/M04 A3035 RMK A01 T00381041  RH  057%=      5-min Rain = 0
KPT1 092340Z 32006KT 04/M04 A3035 RMK A01 T00351042  RH  058%=      5-min Rain = 0
KPT1 092345Z 32006KT 03/M04 A3035 RMK A01 T00321041  RH  059%=      5-min Rain = 0
KPT1 092350Z 31005KT 03/M04 A3035 RMK A01 T00301041  RH  061%=      5-min Rain = 0
KPT1 092355Z 31006KT 03/M04 A3035 RMK A01 T00271039  RH  062%=      5-min Rain = 0
KPT1 100000Z 31006KT 03/M04 A3035 RMK A01 T00251038  RH  064%=      5-min Rain = 0
KPT1 100005Z 30006KT 02/M04 A3035 RMK A01 T00231036  RH  066%=      5-min Rain = 0
KPT1 100010Z 29005KT 02/M04 A3035 RMK A01 T00231035  RH  066%=      5-min Rain = 0
KPT1 100015Z 29006KT 02/M03 A3035 RMK A01 T00221034  RH  067%=      5-min Rain = 0
KPT1 100020Z 29006KT 02/M03 A3036 RMK A01 T00221033  RH  068%=      5-min Rain = 0
KPT1 100025Z 29006KT 02/M03 A3036 RMK A01 T00211034  RH  068%=      5-min Rain = 0
KPT1 100030Z 29005KT 02/M04 A3036 RMK A01 T00191035  RH  068%=      5-min Rain = 0
KPT1 100035Z 29005KT 02/M04 A3036 RMK A01 T00171035  RH  069%=      5-min Rain = 0
KPT1 100040Z 29005KT 02/M04 A3035 RMK A01 T00161037  RH  069%=      5-min Rain = 0
KPT1 100045Z 29006KT 02/M04 A3035 RMK A01 T00161037  RH  069%=      5-min Rain = 0
KPT1 100050Z 28006KT 02/M04 A3035 RMK A01 T00151038  RH  068%=      5-min Rain = 0
KPT1 100055Z 27005KT 02/M04 A3035 RMK A01 T00181039  RH  066%=      5-min Rain = 0
KPT1 100100Z 27004KT 02/M04 A3035 RMK A01 T00181039  RH  067%=      5-min Rain = 0
KPT1 100105Z 26004KT 02/M04 A3035 RMK A01 T00161037  RH  069%=      5-min Rain = 0
KPT1 100110Z 25004KT 01/M04 A3035 RMK A01 T00131036  RH  071%=      5-min Rain = 0
KPT1 100115Z 26004KT 01/M03 A3035 RMK A01 T00121030  RH  074%=      5-min Rain = 0
KPT1 100120Z 26004KT 01/M03 A3035 RMK A01 T00111027  RH  076%=      5-min Rain = 0
KPT1 100125Z 26004KT 01/M03 A3035 RMK A01 T00111026  RH  077%=      5-min Rain = 0
KPT1 100130Z 26004KT 01/M03 A3036 RMK A01 T00111025  RH  078%=      5-min Rain = 0
KPT1 100135Z 26004KT 01/M03 A3036 RMK A01 T00101025  RH  078%=      5-min Rain = 0
KPT1 100140Z 25005KT 01/M03 A3036 RMK A01 T00091025  RH  079%=      5-min Rain = 0
KPT1 100145Z 27005KT 01/M03 A3036 RMK A01 T00081025  RH  079%=      5-min Rain = 0
KPT1 100150Z 28006KT 01/M03 A3036 RMK A01 T00081028  RH  078%=      5-min Rain = 0
KPT1 100155Z 29006KT 01/M03 A3037 RMK A01 T00101030  RH  076%=      5-min Rain = 0
KPT1 100200Z 30005KT 01/M03 A3037 RMK A01 T00081031  RH  076%=      5-min Rain = 0
KPT1 100205Z 29005KT 01/M03 A3037 RMK A01 T00071031  RH  076%=      5-min Rain = 0
KPT1 100210Z 30005KT 01/M03 A3037 RMK A01 T00061031  RH  077%=      5-min Rain = 0
KPT1 100215Z 30005KT 01/M03 A3038 RMK A01 T00051033  RH  077%=      5-min Rain = 0
KPT1 100220Z 30005KT 00/M03 A3038 RMK A01 T00041031  RH  078%=      5-min Rain = 0
KPT1 100225Z 30005KT 01/M03 A3038 RMK A01 T00051032  RH  077%=      5-min Rain = 0
KPT1 100230Z 30005KT 01/M03 A3038 RMK A01 T00051032  RH  077%=      5-min Rain = 0
KPT1 100235Z 31005KT 00/M03 A3038 RMK A01 T00031034  RH  077%=      5-min Rain = 0
KPT1 100240Z 31005KT 00/M04 A3038 RMK A01 T00011035  RH  078%=      5-min Rain = 0
KPT1 100245Z 30005KT M00/M04 A3038 RMK A01 T10011035  RH  079%=      5-min Rain = 0
KPT1 100250Z 31005KT M00/M04 A3038 RMK A01 T10021035  RH  080%=      5-min Rain = 0
KPT1 100255Z 31005KT M01/M04 A3038 RMK A01 T10051036  RH  081%=      5-min Rain = 0
KPT1 100300Z 31004KT M00/M04 A3038 RMK A01 T10041035  RH  081%=      5-min Rain = 0
KPT1 100305Z 29003KT M00/M03 A3038 RMK A01 T10031034  RH  081%=      5-min Rain = 0
KPT1 100310Z 28003KT 00/M03 A3038 RMK A01 T00021031  RH  080%=      5-min Rain = 0
KPT1 100315Z 28003KT 00/M03 A3038 RMK A01 T00011033  RH  079%=      5-min Rain = 0
KPT1 100320Z 27003KT 00/03 A3038 RMK A01 T00-00-33  RH  080%=      5-min Rain = 0
KPT1 100325Z 28003KT M00/M03 A3038 RMK A01 T10011031  RH  081%=      5-min Rain = 0
KPT1 100330Z 28004KT M00/M03 A3038 RMK A01 T10021030  RH  082%=      5-min Rain = 0
KPT1 100335Z 28004KT M00/M03 A3038 RMK A01 T10021029  RH  083%=      5-min Rain = 0
KPT1 100340Z 29004KT M00/M03 A3038 RMK A01 T10021028  RH  083%=      5-min Rain = 0
KPT1 100345Z 29003KT M00/M03 A3038 RMK A01 T10011028  RH  083%=      5-min Rain = 0
KPT1 100350Z 29002KT 00/03 A3037 RMK A01 T00000-27  RH  083%=      5-min Rain = 0
KPT1 100355Z 26002KT M00/M03 A3038 RMK A01 T10011029  RH  082%=      5-min Rain = 0
KPT1 100400Z 28002KT M00/M03 A3038 RMK A01 T10011028  RH  083%=      5-min Rain = 0
KPT1 100405Z 30002KT 00/M03 A3038 RMK A01 T00011027  RH  083%=      5-min Rain = 0
KPT1 100410Z 28002KT M00/M03 A3038 RMK A01 T10011029  RH  082%=      5-min Rain = 0
KPT1 100415Z 27002KT M00/M03 A3038 RMK A01 T10041030  RH  083%=      5-min Rain = 0
KPT1 100420Z 27003KT M00/M03 A3038 RMK A01 T10021028  RH  084%=      5-min Rain = 0
KPT1 100425Z 29003KT M00/M03 A3038 RMK A01 T10011029  RH  082%=      5-min Rain = 0
KPT1 100430Z 32002KT M00/M03 A3038 RMK A01 T10021030  RH  082%=      5-min Rain = 0
KPT1 100435Z 33003KT M00/M03 A3038 RMK A01 T10041032  RH  082%=      5-min Rain = 0
KPT1 100440Z 31004KT M01/M03 A3038 RMK A01 T10071033  RH  084%=      5-min Rain = 0
KPT1 100445Z 29006KT M01/M03 A3038 RMK A01 T10081032  RH  085%=      5-min Rain = 0
KPT1 100450Z 30005KT M00/M03 A3038 RMK A01 T10041032  RH  082%=      5-min Rain = 0
KPT1 100455Z 31006KT M00/M04 A3038 RMK A01 T10031035  RH  080%=      5-min Rain = 0
KPT1 100500Z 30007KT M00/M04 A3038 RMK A01 T10041036  RH  080%=      5-min Rain = 0
KPT1 100505Z 30007KT M00/M04 A3038 RMK A01 T10021037  RH  078%=      5-min Rain = 0
KPT1 100510Z 30006KT M00/M04 A3038 RMK A01 T10031039  RH  078%=      5-min Rain = 0
KPT1 100515Z 29006KT M00/M04 A3038 RMK A01 T10041039  RH  078%=      5-min Rain = 0
KPT1 100520Z 29006KT M00/M04 A3038 RMK A01 T10021037  RH  078%=      5-min Rain = 0
KPT1 100525Z 28006KT M00/M04 A3038 RMK A01 T10011036  RH  078%=      5-min Rain = 0
KPT1 100530Z 28006KT 00/M04 A3038 RMK A01 T00011035  RH  078%=      5-min Rain = 0
KPT1 100535Z 27005KT 00/M04 A3038 RMK A01 T00031035  RH  077%=      5-min Rain = 0
KPT1 100540Z 27006KT 00/M04 A3037 RMK A01 T00031036  RH  076%=      5-min Rain = 0
KPT1 100545Z 27006KT 00/M04 A3037 RMK A01 T00021035  RH  077%=      5-min Rain = 0
KPT1 100550Z 27007KT 00/M03 A3037 RMK A01 T00041033  RH  077%=      5-min Rain = 0
KPT1 100555Z 27006KT 01/M03 A3037 RMK A01 T00051032  RH  077%=      5-min Rain = 0

Page generated in 0.0347 seconds.